sensor_id;sensor_type;location;lat;lon;timestamp;P1;durP1;ratioP1;P2;durP2;ratioP2
12288;SDS011;6207;49.308;7.336;2023-01-10T00:01:23;7.30;;;6.90;;
12288;SDS011;6207;49.308;7.336;2023-01-10T00:03:50;7.80;;;7.13;;
12288;SDS011;6207;49.308;7.336;2023-01-10T00:06:17;7.97;;;7.40;;
12288;SDS011;6207;49.308;7.336;2023-01-10T00:08:43;8.80;;;8.00;;
12288;SDS011;6207;49.308;7.336;2023-01-10T00:11:10;8.50;;;8.00;;
12288;SDS011;6207;49.308;7.336;2023-01-10T00:13:55;8.63;;;8.07;;
12288;SDS011;6207;49.308;7.336;2023-01-10T00:16:22;8.63;;;8.20;;
12288;SDS011;6207;49.308;7.336;2023-01-10T00:18:49;9.30;;;8.70;;
12288;SDS011;6207;49.308;7.336;2023-01-10T00:21:16;9.33;;;8.83;;
12288;SDS011;6207;49.308;7.336;2023-01-10T00:23:43;9.37;;;8.87;;
12288;SDS011;6207;49.308;7.336;2023-01-10T00:26:10;9.43;;;8.60;;
12288;SDS011;6207;49.308;7.336;2023-01-10T00:28:37;9.30;;;8.70;;
12288;SDS011;6207;49.308;7.336;2023-01-10T00:31:04;8.87;;;8.43;;
12288;SDS011;6207;49.308;7.336;2023-01-10T00:33:32;9.13;;;8.53;;
12288;SDS011;6207;49.308;7.336;2023-01-10T00:36:00;8.93;;;8.33;;
12288;SDS011;6207;49.308;7.336;2023-01-10T00:38:28;8.77;;;8.27;;
12288;SDS011;6207;49.308;7.336;2023-01-10T00:40:56;9.20;;;8.70;;
12288;SDS011;6207;49.308;7.336;2023-01-10T00:43:23;9.37;;;8.80;;
12288;SDS011;6207;49.308;7.336;2023-01-10T00:46:09;9.57;;;9.03;;
12288;SDS011;6207;49.308;7.336;2023-01-10T00:48:36;9.90;;;9.30;;
12288;SDS011;6207;49.308;7.336;2023-01-10T00:51:03;10.03;;;9.47;;
12288;SDS011;6207;49.308;7.336;2023-01-10T00:53:31;9.80;;;9.30;;
12288;SDS011;6207;49.308;7.336;2023-01-10T00:55:58;9.93;;;9.13;;
12288;SDS011;6207;49.308;7.336;2023-01-10T00:58:24;10.10;;;9.40;;
12288;SDS011;6207;49.308;7.336;2023-01-10T01:00:51;9.90;;;9.30;;
12288;SDS011;6207;49.308;7.336;2023-01-10T01:03:19;10.20;;;9.50;;
12288;SDS011;6207;49.308;7.336;2023-01-10T01:05:47;9.57;;;8.93;;
12288;SDS011;6207;49.308;7.336;2023-01-10T01:08:15;10.23;;;9.47;;
12288;SDS011;6207;49.308;7.336;2023-01-10T01:10:43;9.93;;;9.30;;
12288;SDS011;6207;49.308;7.336;2023-01-10T01:13:17;9.93;;;9.33;;
12288;SDS011;6207;49.308;7.336;2023-01-10T01:15:46;10.77;;;9.17;;
12288;SDS011;6207;49.308;7.336;2023-01-10T01:18:15;9.77;;;9.10;;
12288;SDS011;6207;49.308;7.336;2023-01-10T01:20:46;9.93;;;9.10;;
12288;SDS011;6207;49.308;7.336;2023-01-10T01:23:13;10.60;;;10.00;;
12288;SDS011;6207;49.308;7.336;2023-01-10T01:25:41;9.77;;;8.97;;
12288;SDS011;6207;49.308;7.336;2023-01-10T01:28:11;10.77;;;9.87;;
12288;SDS011;6207;49.308;7.336;2023-01-10T01:30:38;9.40;;;8.80;;
12288;SDS011;6207;49.308;7.336;2023-01-10T01:33:05;9.40;;;8.80;;
12288;SDS011;6207;49.308;7.336;2023-01-10T01:35:33;10.07;;;9.13;;
12288;SDS011;6207;49.308;7.336;2023-01-10T01:38:00;10.07;;;9.27;;
12288;SDS011;6207;49.308;7.336;2023-01-10T01:40:27;10.43;;;9.73;;
12288;SDS011;6207;49.308;7.336;2023-01-10T01:42:53;9.70;;;9.20;;
12288;SDS011;6207;49.308;7.336;2023-01-10T01:48:00;10.40;;;9.63;;
12288;SDS011;6207;49.308;7.336;2023-01-10T01:50:47;11.27;;;10.10;;
12288;SDS011;6207;49.308;7.336;2023-01-10T01:53:34;11.67;;;10.47;;
12288;SDS011;6207;49.308;7.336;2023-01-10T01:56:29;10.77;;;9.83;;
12288;SDS011;6207;49.308;7.336;2023-01-10T02:01:49;17.83;;;10.60;;
12288;SDS011;6207;49.308;7.336;2023-01-10T02:04:27;11.77;;;10.77;;
12288;SDS011;6207;49.308;7.336;2023-01-10T02:06:59;11.60;;;10.30;;
12288;SDS011;6207;49.308;7.336;2023-01-10T02:09:32;11.40;;;10.30;;
12288;SDS011;6207;49.308;7.336;2023-01-10T02:12:04;15.13;;;11.00;;
12288;SDS011;6207;49.308;7.336;2023-01-10T02:14:31;11.53;;;10.57;;
12288;SDS011;6207;49.308;7.336;2023-01-10T02:16:59;15.23;;;10.47;;
12288;SDS011;6207;49.308;7.336;2023-01-10T02:34:06;12.43;;;10.87;;
12288;SDS011;6207;49.308;7.336;2023-01-10T02:42:14;19.07;;;11.23;;
12288;SDS011;6207;49.308;7.336;2023-01-10T02:45:03;12.97;;;11.30;;
12288;SDS011;6207;49.308;7.336;2023-01-10T02:47:38;18.30;;;11.70;;
12288;SDS011;6207;49.308;7.336;2023-01-10T02:52:56;18.87;;;12.23;;
12288;SDS011;6207;49.308;7.336;2023-01-10T02:55:27;13.70;;;12.00;;
12288;SDS011;6207;49.308;7.336;2023-01-10T02:58:07;17.23;;;12.17;;
12288;SDS011;6207;49.308;7.336;2023-01-10T03:07:07;14.60;;;11.80;;
12288;SDS011;6207;49.308;7.336;2023-01-10T03:09:51;19.43;;;12.33;;
12288;SDS011;6207;49.308;7.336;2023-01-10T03:15:04;16.23;;;11.63;;
12288;SDS011;6207;49.308;7.336;2023-01-10T03:17:33;15.80;;;12.13;;
12288;SDS011;6207;49.308;7.336;2023-01-10T03:20:03;14.80;;;11.43;;
12288;SDS011;6207;49.308;7.336;2023-01-10T03:22:32;13.30;;;11.70;;
12288;SDS011;6207;49.308;7.336;2023-01-10T03:25:02;19.77;;;11.63;;
12288;SDS011;6207;49.308;7.336;2023-01-10T03:30:17;17.90;;;12.23;;
12288;SDS011;6207;49.308;7.336;2023-01-10T03:32:56;15.17;;;12.70;;
12288;SDS011;6207;49.308;7.336;2023-01-10T03:38:37;18.77;;;11.93;;
12288;SDS011;6207;49.308;7.336;2023-01-10T03:41:30;16.30;;;12.40;;
12288;SDS011;6207;49.308;7.336;2023-01-10T03:44:08;14.83;;;12.00;;
12288;SDS011;6207;49.308;7.336;2023-01-10T03:49:36;13.97;;;12.77;;
12288;SDS011;6207;49.308;7.336;2023-01-10T03:52:05;16.53;;;12.60;;
12288;SDS011;6207;49.308;7.336;2023-01-10T03:54:36;14.20;;;12.50;;
12288;SDS011;6207;49.308;7.336;2023-01-10T03:57:04;22.37;;;13.87;;
12288;SDS011;6207;49.308;7.336;2023-01-10T03:59:32;21.83;;;13.43;;
12288;SDS011;6207;49.308;7.336;2023-01-10T04:01:59;18.63;;;12.60;;
12288;SDS011;6207;49.308;7.336;2023-01-10T04:04:26;13.90;;;12.50;;
12288;SDS011;6207;49.308;7.336;2023-01-10T04:06:53;20.50;;;13.03;;
12288;SDS011;6207;49.308;7.336;2023-01-10T04:09:20;14.00;;;12.47;;
12288;SDS011;6207;49.308;7.336;2023-01-10T04:11:46;20.90;;;12.80;;
12288;SDS011;6207;49.308;7.336;2023-01-10T04:14:13;19.10;;;12.90;;
12288;SDS011;6207;49.308;7.336;2023-01-10T04:16:40;17.33;;;12.50;;
12288;SDS011;6207;49.308;7.336;2023-01-10T04:19:07;21.23;;;12.97;;
12288;SDS011;6207;49.308;7.336;2023-01-10T04:21:34;14.07;;;12.67;;
12288;SDS011;6207;49.308;7.336;2023-01-10T04:24:00;15.33;;;13.60;;
12288;SDS011;6207;49.308;7.336;2023-01-10T04:26:27;15.47;;;12.80;;
12288;SDS011;6207;49.308;7.336;2023-01-10T04:28:54;22.20;;;14.00;;
12288;SDS011;6207;49.308;7.336;2023-01-10T04:31:20;14.00;;;12.70;;
12288;SDS011;6207;49.308;7.336;2023-01-10T04:33:48;16.10;;;13.40;;
12288;SDS011;6207;49.308;7.336;2023-01-10T04:36:15;17.50;;;13.33;;
12288;SDS011;6207;49.308;7.336;2023-01-10T04:38:41;13.43;;;12.43;;
12288;SDS011;6207;49.308;7.336;2023-01-10T04:41:08;18.97;;;13.17;;
12288;SDS011;6207;49.308;7.336;2023-01-10T04:43:35;14.67;;;13.20;;
12288;SDS011;6207;49.308;7.336;2023-01-10T04:46:02;13.23;;;12.23;;
12288;SDS011;6207;49.308;7.336;2023-01-10T04:48:29;18.70;;;12.80;;
12288;SDS011;6207;49.308;7.336;2023-01-10T04:50:56;19.30;;;13.33;;
12288;SDS011;6207;49.308;7.336;2023-01-10T04:53:23;15.33;;;12.30;;
12288;SDS011;6207;49.308;7.336;2023-01-10T04:55:50;13.80;;;12.47;;
12288;SDS011;6207;49.308;7.336;2023-01-10T04:58:16;14.17;;;12.70;;
12288;SDS011;6207;49.308;7.336;2023-01-10T05:00:43;14.73;;;13.10;;
12288;SDS011;6207;49.308;7.336;2023-01-10T05:03:10;17.60;;;13.20;;
12288;SDS011;6207;49.308;7.336;2023-01-10T05:05:37;18.33;;;12.80;;
12288;SDS011;6207;49.308;7.336;2023-01-10T05:08:04;17.47;;;12.77;;
12288;SDS011;6207;49.308;7.336;2023-01-10T05:10:31;16.07;;;12.97;;
12288;SDS011;6207;49.308;7.336;2023-01-10T05:12:57;15.03;;;12.60;;
12288;SDS011;6207;49.308;7.336;2023-01-10T05:15:24;17.87;;;13.03;;
12288;SDS011;6207;49.308;7.336;2023-01-10T05:17:56;14.57;;;13.17;;
12288;SDS011;6207;49.308;7.336;2023-01-10T05:20:24;14.57;;;12.97;;
12288;SDS011;6207;49.308;7.336;2023-01-10T05:22:51;20.93;;;13.00;;
12288;SDS011;6207;49.308;7.336;2023-01-10T05:25:17;19.17;;;13.63;;
12288;SDS011;6207;49.308;7.336;2023-01-10T05:27:44;14.27;;;12.50;;
12288;SDS011;6207;49.308;7.336;2023-01-10T05:30:11;14.60;;;12.70;;
12288;SDS011;6207;49.308;7.336;2023-01-10T05:32:38;16.60;;;12.27;;
12288;SDS011;6207;49.308;7.336;2023-01-10T05:35:06;14.67;;;13.10;;
12288;SDS011;6207;49.308;7.336;2023-01-10T05:37:33;19.17;;;13.20;;
12288;SDS011;6207;49.308;7.336;2023-01-10T05:39:59;14.20;;;12.67;;
12288;SDS011;6207;49.308;7.336;2023-01-10T05:42:26;13.93;;;12.90;;
12288;SDS011;6207;49.308;7.336;2023-01-10T05:44:53;15.33;;;13.80;;
12288;SDS011;6207;49.308;7.336;2023-01-10T05:47:20;17.07;;;13.33;;
12288;SDS011;6207;49.308;7.336;2023-01-10T05:49:47;14.77;;;13.27;;
12288;SDS011;6207;49.308;7.336;2023-01-10T05:52:19;15.10;;;13.43;;
12288;SDS011;6207;49.308;7.336;2023-01-10T05:54:46;14.37;;;12.87;;
12288;SDS011;6207;49.308;7.336;2023-01-10T05:57:13;15.53;;;13.53;;
12288;SDS011;6207;49.308;7.336;2023-01-10T05:59:40;15.47;;;12.80;;
12288;SDS011;6207;49.308;7.336;2023-01-10T06:02:07;18.63;;;13.03;;
12288;SDS011;6207;49.308;7.336;2023-01-10T06:04:33;14.47;;;13.00;;
12288;SDS011;6207;49.308;7.336;2023-01-10T06:07:00;16.77;;;13.67;;
12288;SDS011;6207;49.308;7.336;2023-01-10T06:09:27;16.23;;;13.20;;
12288;SDS011;6207;49.308;7.336;2023-01-10T06:11:54;14.27;;;13.07;;
12288;SDS011;6207;49.308;7.336;2023-01-10T06:14:20;17.07;;;13.47;;
12288;SDS011;6207;49.308;7.336;2023-01-10T06:16:47;20.67;;;13.27;;
12288;SDS011;6207;49.308;7.336;2023-01-10T06:19:14;18.90;;;13.83;;
12288;SDS011;6207;49.308;7.336;2023-01-10T06:21:41;19.83;;;14.20;;
12288;SDS011;6207;49.308;7.336;2023-01-10T06:24:08;15.00;;;13.70;;
12288;SDS011;6207;49.308;7.336;2023-01-10T06:26:35;18.87;;;14.00;;
12288;SDS011;6207;49.308;7.336;2023-01-10T06:29:01;17.57;;;13.73;;
12288;SDS011;6207;49.308;7.336;2023-01-10T06:31:28;14.93;;;13.70;;
12288;SDS011;6207;49.308;7.336;2023-01-10T06:33:55;15.17;;;13.73;;
12288;SDS011;6207;49.308;7.336;2023-01-10T06:36:22;15.63;;;14.10;;
12288;SDS011;6207;49.308;7.336;2023-01-10T06:38:48;14.60;;;13.50;;
12288;SDS011;6207;49.308;7.336;2023-01-10T06:41:15;15.37;;;13.83;;
12288;SDS011;6207;49.308;7.336;2023-01-10T06:43:43;17.20;;;14.60;;
12288;SDS011;6207;49.308;7.336;2023-01-10T06:46:11;14.73;;;13.53;;
12288;SDS011;6207;49.308;7.336;2023-01-10T06:48:42;19.50;;;14.53;;
12288;SDS011;6207;49.308;7.336;2023-01-10T06:51:14;17.40;;;13.90;;
12288;SDS011;6207;49.308;7.336;2023-01-10T06:53:45;16.53;;;13.90;;
12288;SDS011;6207;49.308;7.336;2023-01-10T06:56:11;15.10;;;13.57;;
12288;SDS011;6207;49.308;7.336;2023-01-10T06:58:38;14.70;;;13.57;;
12288;SDS011;6207;49.308;7.336;2023-01-10T07:01:06;17.70;;;13.90;;
12288;SDS011;6207;49.308;7.336;2023-01-10T07:03:38;15.87;;;13.40;;
12288;SDS011;6207;49.308;7.336;2023-01-10T07:06:06;14.53;;;13.13;;
12288;SDS011;6207;49.308;7.336;2023-01-10T07:08:40;14.70;;;13.10;;
12288;SDS011;6207;49.308;7.336;2023-01-10T07:11:08;14.67;;;13.33;;
12288;SDS011;6207;49.308;7.336;2023-01-10T07:13:36;19.50;;;13.03;;
12288;SDS011;6207;49.308;7.336;2023-01-10T07:16:03;14.07;;;12.67;;
12288;SDS011;6207;49.308;7.336;2023-01-10T07:18:35;17.80;;;13.40;;
12288;SDS011;6207;49.308;7.336;2023-01-10T07:21:03;14.80;;;13.23;;
12288;SDS011;6207;49.308;7.336;2023-01-10T07:23:30;15.27;;;12.77;;
12288;SDS011;6207;49.308;7.336;2023-01-10T07:25:58;18.57;;;13.73;;
12288;SDS011;6207;49.308;7.336;2023-01-10T07:28:28;12.30;;;11.70;;
12288;SDS011;6207;49.308;7.336;2023-01-10T07:30:59;15.30;;;13.10;;
12288;SDS011;6207;49.308;7.336;2023-01-10T07:33:27;16.50;;;13.40;;
12288;SDS011;6207;49.308;7.336;2023-01-10T07:35:54;18.63;;;12.80;;
12288;SDS011;6207;49.308;7.336;2023-01-10T07:38:21;17.07;;;12.80;;
12288;SDS011;6207;49.308;7.336;2023-01-10T07:40:48;14.73;;;12.77;;
12288;SDS011;6207;49.308;7.336;2023-01-10T07:43:14;14.13;;;12.67;;
12288;SDS011;6207;49.308;7.336;2023-01-10T07:45:41;17.03;;;13.10;;
12288;SDS011;6207;49.308;7.336;2023-01-10T07:48:08;13.90;;;12.77;;
12288;SDS011;6207;49.308;7.336;2023-01-10T07:50:35;14.47;;;13.13;;
12288;SDS011;6207;49.308;7.336;2023-01-10T07:53:03;16.80;;;13.33;;
12288;SDS011;6207;49.308;7.336;2023-01-10T07:55:31;16.90;;;13.43;;
12288;SDS011;6207;49.308;7.336;2023-01-10T07:58:01;14.93;;;12.90;;
12288;SDS011;6207;49.308;7.336;2023-01-10T08:00:27;15.00;;;12.90;;
12288;SDS011;6207;49.308;7.336;2023-01-10T08:02:54;15.03;;;13.33;;
12288;SDS011;6207;49.308;7.336;2023-01-10T08:05:21;13.93;;;12.83;;
12288;SDS011;6207;49.308;7.336;2023-01-10T08:07:48;19.17;;;13.87;;
12288;SDS011;6207;49.308;7.336;2023-01-10T08:10:15;15.10;;;13.63;;
12288;SDS011;6207;49.308;7.336;2023-01-10T08:12:42;18.97;;;13.80;;
12288;SDS011;6207;49.308;7.336;2023-01-10T08:15:09;18.53;;;14.00;;
12288;SDS011;6207;49.308;7.336;2023-01-10T08:17:36;14.87;;;13.40;;
12288;SDS011;6207;49.308;7.336;2023-01-10T08:20:02;14.70;;;13.30;;
12288;SDS011;6207;49.308;7.336;2023-01-10T08:22:29;15.63;;;13.60;;
12288;SDS011;6207;49.308;7.336;2023-01-10T08:24:56;15.10;;;13.53;;
12288;SDS011;6207;49.308;7.336;2023-01-10T08:27:23;14.67;;;13.37;;
12288;SDS011;6207;49.308;7.336;2023-01-10T08:29:50;17.10;;;14.00;;
12288;SDS011;6207;49.308;7.336;2023-01-10T08:32:16;15.90;;;14.20;;
12288;SDS011;6207;49.308;7.336;2023-01-10T08:34:43;15.47;;;13.90;;
12288;SDS011;6207;49.308;7.336;2023-01-10T08:37:13;16.53;;;14.77;;
12288;SDS011;6207;49.308;7.336;2023-01-10T08:39:40;16.03;;;14.57;;
12288;SDS011;6207;49.308;7.336;2023-01-10T08:42:07;21.57;;;15.20;;
12288;SDS011;6207;49.308;7.336;2023-01-10T08:44:34;15.20;;;13.83;;
12288;SDS011;6207;49.308;7.336;2023-01-10T08:47:00;19.07;;;15.30;;
12288;SDS011;6207;49.308;7.336;2023-01-10T08:49:27;15.57;;;13.97;;
12288;SDS011;6207;49.308;7.336;2023-01-10T08:51:54;21.80;;;14.57;;
12288;SDS011;6207;49.308;7.336;2023-01-10T08:54:21;16.70;;;14.43;;
12288;SDS011;6207;49.308;7.336;2023-01-10T08:56:47;15.80;;;14.07;;
12288;SDS011;6207;49.308;7.336;2023-01-10T08:59:14;15.13;;;13.63;;
12288;SDS011;6207;49.308;7.336;2023-01-10T09:01:41;14.60;;;13.30;;
12288;SDS011;6207;49.308;7.336;2023-01-10T09:04:08;17.03;;;13.93;;
12288;SDS011;6207;49.308;7.336;2023-01-10T09:06:35;14.43;;;13.00;;
12288;SDS011;6207;49.308;7.336;2023-01-10T09:09:02;14.73;;;13.17;;
12288;SDS011;6207;49.308;7.336;2023-01-10T09:11:29;15.53;;;13.83;;
12288;SDS011;6207;49.308;7.336;2023-01-10T09:13:56;14.30;;;12.80;;
12288;SDS011;6207;49.308;7.336;2023-01-10T09:16:23;15.77;;;13.73;;
12288;SDS011;6207;49.308;7.336;2023-01-10T09:18:50;16.90;;;14.47;;
12288;SDS011;6207;49.308;7.336;2023-01-10T09:21:16;14.87;;;13.50;;
12288;SDS011;6207;49.308;7.336;2023-01-10T09:23:43;19.73;;;14.17;;
12288;SDS011;6207;49.308;7.336;2023-01-10T09:26:10;14.53;;;13.10;;
12288;SDS011;6207;49.308;7.336;2023-01-10T09:28:37;15.47;;;13.70;;
12288;SDS011;6207;49.308;7.336;2023-01-10T09:31:03;15.97;;;14.30;;
12288;SDS011;6207;49.308;7.336;2023-01-10T09:33:34;13.63;;;12.53;;
12288;SDS011;6207;49.308;7.336;2023-01-10T09:36:12;14.03;;;12.73;;
12288;SDS011;6207;49.308;7.336;2023-01-10T09:38:40;16.70;;;13.70;;
12288;SDS011;6207;49.308;7.336;2023-01-10T09:41:16;19.57;;;13.70;;
12288;SDS011;6207;49.308;7.336;2023-01-10T09:46:55;17.87;;;13.20;;
12288;SDS011;6207;49.308;7.336;2023-01-10T09:52:21;14.87;;;13.27;;
12288;SDS011;6207;49.308;7.336;2023-01-10T09:54:53;14.07;;;12.70;;
12288;SDS011;6207;49.308;7.336;2023-01-10T09:57:22;15.27;;;13.57;;
12288;SDS011;6207;49.308;7.336;2023-01-10T09:59:50;15.37;;;13.23;;
12288;SDS011;6207;49.308;7.336;2023-01-10T10:02:26;14.70;;;13.13;;
12288;SDS011;6207;49.308;7.336;2023-01-10T10:04:59;14.93;;;13.53;;
12288;SDS011;6207;49.308;7.336;2023-01-10T10:07:37;15.27;;;12.80;;
12288;SDS011;6207;49.308;7.336;2023-01-10T10:10:05;14.60;;;13.20;;
12288;SDS011;6207;49.308;7.336;2023-01-10T10:12:53;15.90;;;13.40;;
12288;SDS011;6207;49.308;7.336;2023-01-10T10:18:35;16.70;;;13.07;;
12288;SDS011;6207;49.308;7.336;2023-01-10T10:26:51;14.10;;;12.80;;
12288;SDS011;6207;49.308;7.336;2023-01-10T10:40:02;14.33;;;13.30;;
12288;SDS011;6207;49.308;7.336;2023-01-10T10:42:33;14.40;;;13.07;;
12288;SDS011;6207;49.308;7.336;2023-01-10T10:45:14;14.53;;;13.13;;
12288;SDS011;6207;49.308;7.336;2023-01-10T10:47:55;16.57;;;13.90;;
12288;SDS011;6207;49.308;7.336;2023-01-10T10:51:09;14.10;;;12.90;;
12288;SDS011;6207;49.308;7.336;2023-01-10T10:53:27;16.60;;;13.50;;
12288;SDS011;6207;49.308;7.336;2023-01-10T10:55:56;14.90;;;13.43;;
12288;SDS011;6207;49.308;7.336;2023-01-10T10:58:24;13.50;;;12.53;;
12288;SDS011;6207;49.308;7.336;2023-01-10T11:00:51;20.83;;;13.47;;
12288;SDS011;6207;49.308;7.336;2023-01-10T11:05:48;16.70;;;12.80;;
12288;SDS011;6207;49.308;7.336;2023-01-10T11:08:16;15.77;;;13.10;;
12288;SDS011;6207;49.308;7.336;2023-01-10T11:10:46;14.57;;;13.33;;
12288;SDS011;6207;49.308;7.336;2023-01-10T11:16:00;19.60;;;13.77;;
12288;SDS011;6207;49.308;7.336;2023-01-10T11:18:29;13.77;;;12.40;;
12288;SDS011;6207;49.308;7.336;2023-01-10T11:21:12;15.17;;;13.63;;
12288;SDS011;6207;49.308;7.336;2023-01-10T11:23:51;15.43;;;13.20;;
12288;SDS011;6207;49.308;7.336;2023-01-10T11:28:51;14.03;;;12.77;;
12288;SDS011;6207;49.308;7.336;2023-01-10T11:31:28;18.93;;;14.57;;
12288;SDS011;6207;49.308;7.336;2023-01-10T11:33:56;14.50;;;12.87;;
12288;SDS011;6207;49.308;7.336;2023-01-10T11:36:23;14.27;;;12.97;;
12288;SDS011;6207;49.308;7.336;2023-01-10T11:39:00;17.07;;;13.17;;
12288;SDS011;6207;49.308;7.336;2023-01-10T11:41:29;18.40;;;13.47;;
12288;SDS011;6207;49.308;7.336;2023-01-10T11:46:54;13.97;;;12.97;;
12288;SDS011;6207;49.308;7.336;2023-01-10T11:49:39;14.17;;;13.33;;
12288;SDS011;6207;49.308;7.336;2023-01-10T11:52:27;17.50;;;14.13;;
12288;SDS011;6207;49.308;7.336;2023-01-10T11:54:55;13.93;;;12.97;;
12288;SDS011;6207;49.308;7.336;2023-01-10T11:57:26;19.93;;;14.00;;
12288;SDS011;6207;49.308;7.336;2023-01-10T12:00:06;14.17;;;13.07;;
12288;SDS011;6207;49.308;7.336;2023-01-10T12:02:35;19.83;;;14.13;;
12288;SDS011;6207;49.308;7.336;2023-01-10T12:05:11;15.57;;;13.77;;
12288;SDS011;6207;49.308;7.336;2023-01-10T12:08:00;14.80;;;13.50;;
12288;SDS011;6207;49.308;7.336;2023-01-10T12:10:34;14.47;;;13.10;;
12288;SDS011;6207;49.308;7.336;2023-01-10T12:13:14;14.87;;;13.43;;
12288;SDS011;6207;49.308;7.336;2023-01-10T12:15:42;14.53;;;13.43;;
12288;SDS011;6207;49.308;7.336;2023-01-10T12:18:09;15.63;;;13.60;;
12288;SDS011;6207;49.308;7.336;2023-01-10T12:20:42;15.37;;;13.97;;
12288;SDS011;6207;49.308;7.336;2023-01-10T12:23:17;17.17;;;14.73;;
12288;SDS011;6207;49.308;7.336;2023-01-10T12:25:47;18.47;;;15.37;;
12288;SDS011;6207;49.308;7.336;2023-01-10T12:28:26;13.53;;;12.47;;
12288;SDS011;6207;49.308;7.336;2023-01-10T12:30:56;15.87;;;13.93;;
12288;SDS011;6207;49.308;7.336;2023-01-10T12:33:25;16.13;;;13.73;;
12288;SDS011;6207;49.308;7.336;2023-01-10T12:39:13;14.47;;;13.47;;
12288;SDS011;6207;49.308;7.336;2023-01-10T12:44:38;17.13;;;13.67;;
12288;SDS011;6207;49.308;7.336;2023-01-10T12:47:16;14.67;;;13.40;;
12288;SDS011;6207;49.308;7.336;2023-01-10T12:49:50;14.97;;;13.40;;
12288;SDS011;6207;49.308;7.336;2023-01-10T12:52:32;15.37;;;13.97;;
12288;SDS011;6207;49.308;7.336;2023-01-10T12:55:19;14.63;;;13.43;;
12288;SDS011;6207;49.308;7.336;2023-01-10T12:58:11;15.80;;;14.20;;
12288;SDS011;6207;49.308;7.336;2023-01-10T13:00:50;14.77;;;13.43;;
12288;SDS011;6207;49.308;7.336;2023-01-10T13:03:20;16.20;;;14.03;;
12288;SDS011;6207;49.308;7.336;2023-01-10T13:05:50;14.40;;;13.30;;
12288;SDS011;6207;49.308;7.336;2023-01-10T13:08:23;14.17;;;13.07;;
12288;SDS011;6207;49.308;7.336;2023-01-10T13:10:54;16.93;;;14.10;;
12288;SDS011;6207;49.308;7.336;2023-01-10T13:13:32;14.30;;;13.07;;
12288;SDS011;6207;49.308;7.336;2023-01-10T13:16:26;18.37;;;14.20;;
12288;SDS011;6207;49.308;7.336;2023-01-10T13:21:31;14.97;;;13.57;;
12288;SDS011;6207;49.308;7.336;2023-01-10T13:24:16;14.00;;;13.10;;
12288;SDS011;6207;49.308;7.336;2023-01-10T13:26:49;13.20;;;12.40;;
12288;SDS011;6207;49.308;7.336;2023-01-10T13:29:24;15.33;;;13.73;;
12288;SDS011;6207;49.308;7.336;2023-01-10T13:31:57;13.83;;;12.80;;
12288;SDS011;6207;49.308;7.336;2023-01-10T13:34:31;17.93;;;13.70;;
12288;SDS011;6207;49.308;7.336;2023-01-10T13:39:35;13.57;;;12.57;;
12288;SDS011;6207;49.308;7.336;2023-01-10T14:08:59;14.77;;;13.50;;
12288;SDS011;6207;49.308;7.336;2023-01-10T14:14:26;14.33;;;13.03;;
12288;SDS011;6207;49.308;7.336;2023-01-10T14:16:56;14.83;;;13.57;;
12288;SDS011;6207;49.308;7.336;2023-01-10T14:19:36;15.33;;;13.73;;
12288;SDS011;6207;49.308;7.336;2023-01-10T14:22:04;13.90;;;13.00;;
12288;SDS011;6207;49.308;7.336;2023-01-10T14:24:41;17.33;;;13.30;;
12288;SDS011;6207;49.308;7.336;2023-01-10T14:27:12;13.63;;;12.90;;
12288;SDS011;6207;49.308;7.336;2023-01-10T14:29:44;14.50;;;13.33;;
12288;SDS011;6207;49.308;7.336;2023-01-10T14:32:34;13.80;;;12.80;;
12288;SDS011;6207;49.308;7.336;2023-01-10T14:35:07;14.83;;;13.53;;
12288;SDS011;6207;49.308;7.336;2023-01-10T14:37:55;14.80;;;13.30;;
12288;SDS011;6207;49.308;7.336;2023-01-10T14:43:17;15.17;;;13.27;;
12288;SDS011;6207;49.308;7.336;2023-01-10T14:45:53;15.60;;;13.47;;
12288;SDS011;6207;49.308;7.336;2023-01-10T14:48:46;15.60;;;13.83;;
12288;SDS011;6207;49.308;7.336;2023-01-10T14:51:23;19.60;;;14.60;;
12288;SDS011;6207;49.308;7.336;2023-01-10T14:53:56;15.60;;;14.20;;
12288;SDS011;6207;49.308;7.336;2023-01-10T14:56:24;15.83;;;14.27;;
12288;SDS011;6207;49.308;7.336;2023-01-10T15:02:09;15.77;;;14.07;;
12288;SDS011;6207;49.308;7.336;2023-01-10T15:07:27;14.60;;;13.30;;
12288;SDS011;6207;49.308;7.336;2023-01-10T15:09:57;15.23;;;13.57;;
12288;SDS011;6207;49.308;7.336;2023-01-10T15:12:28;14.83;;;13.33;;
12288;SDS011;6207;49.308;7.336;2023-01-10T15:15:03;14.07;;;13.07;;
12288;SDS011;6207;49.308;7.336;2023-01-10T15:17:33;15.33;;;12.80;;
12288;SDS011;6207;49.308;7.336;2023-01-10T15:20:02;15.67;;;14.13;;
12288;SDS011;6207;49.308;7.336;2023-01-10T15:22:30;18.03;;;13.37;;
12288;SDS011;6207;49.308;7.336;2023-01-10T15:25:06;14.13;;;12.90;;
12288;SDS011;6207;49.308;7.336;2023-01-10T15:27:53;14.43;;;13.10;;
12288;SDS011;6207;49.308;7.336;2023-01-10T15:30:23;14.57;;;13.20;;
12288;SDS011;6207;49.308;7.336;2023-01-10T15:32:53;15.93;;;12.87;;
12288;SDS011;6207;49.308;7.336;2023-01-10T15:35:24;13.03;;;12.10;;
12288;SDS011;6207;49.308;7.336;2023-01-10T15:38:15;13.63;;;12.43;;
12288;SDS011;6207;49.308;7.336;2023-01-10T15:40:51;17.83;;;13.73;;
12288;SDS011;6207;49.308;7.336;2023-01-10T15:43:24;14.87;;;12.73;;
12288;SDS011;6207;49.308;7.336;2023-01-10T15:45:52;14.20;;;13.10;;
12288;SDS011;6207;49.308;7.336;2023-01-10T15:50:56;14.60;;;13.13;;
12288;SDS011;6207;49.308;7.336;2023-01-10T15:56:39;19.63;;;13.30;;
12288;SDS011;6207;49.308;7.336;2023-01-10T15:59:22;14.50;;;13.10;;
12288;SDS011;6207;49.308;7.336;2023-01-10T16:04:37;14.50;;;13.20;;
12288;SDS011;6207;49.308;7.336;2023-01-10T16:07:06;14.40;;;13.10;;
12288;SDS011;6207;49.308;7.336;2023-01-10T16:09:39;16.23;;;12.83;;
12288;SDS011;6207;49.308;7.336;2023-01-10T16:12:20;15.13;;;12.23;;
12288;SDS011;6207;49.308;7.336;2023-01-10T16:15:28;14.63;;;12.53;;
12288;SDS011;6207;49.308;7.336;2023-01-10T16:18:00;16.10;;;11.87;;
12288;SDS011;6207;49.308;7.336;2023-01-10T16:20:34;13.50;;;12.27;;
12288;SDS011;6207;49.308;7.336;2023-01-10T16:23:33;14.23;;;12.40;;
12288;SDS011;6207;49.308;7.336;2023-01-10T16:26:00;14.23;;;12.77;;
12288;SDS011;6207;49.308;7.336;2023-01-10T16:28:29;16.47;;;13.40;;
12288;SDS011;6207;49.308;7.336;2023-01-10T16:31:01;15.30;;;13.00;;
12288;SDS011;6207;49.308;7.336;2023-01-10T16:33:32;13.00;;;11.90;;
12288;SDS011;6207;49.308;7.336;2023-01-10T16:35:58;12.77;;;11.73;;
12288;SDS011;6207;49.308;7.336;2023-01-10T16:38:26;13.50;;;12.47;;
12288;SDS011;6207;49.308;7.336;2023-01-10T16:40:58;14.23;;;12.37;;
12288;SDS011;6207;49.308;7.336;2023-01-10T16:43:25;13.60;;;12.17;;
12288;SDS011;6207;49.308;7.336;2023-01-10T16:45:57;14.23;;;12.93;;
12288;SDS011;6207;49.308;7.336;2023-01-10T16:48:29;13.43;;;12.33;;
12288;SDS011;6207;49.308;7.336;2023-01-10T16:51:31;15.40;;;12.20;;
12288;SDS011;6207;49.308;7.336;2023-01-10T16:53:51;14.00;;;12.53;;
12288;SDS011;6207;49.308;7.336;2023-01-10T16:56:19;12.20;;;11.30;;
12288;SDS011;6207;49.308;7.336;2023-01-10T16:58:48;13.20;;;12.10;;
12288;SDS011;6207;49.308;7.336;2023-01-10T17:01:20;18.63;;;12.30;;
12288;SDS011;6207;49.308;7.336;2023-01-10T17:03:50;13.57;;;12.20;;
12288;SDS011;6207;49.308;7.336;2023-01-10T17:06:18;13.23;;;12.07;;
12288;SDS011;6207;49.308;7.336;2023-01-10T17:08:45;14.93;;;13.30;;
12288;SDS011;6207;49.308;7.336;2023-01-10T17:11:21;15.67;;;14.17;;
12288;SDS011;6207;49.308;7.336;2023-01-10T17:13:53;14.97;;;13.40;;
12288;SDS011;6207;49.308;7.336;2023-01-10T17:16:20;12.97;;;12.03;;
12288;SDS011;6207;49.308;7.336;2023-01-10T17:18:46;14.80;;;12.50;;
12288;SDS011;6207;49.308;7.336;2023-01-10T17:21:14;13.97;;;12.70;;